sensor_id;sensor_type;location;lat;lon;timestamp;P1;durP1;ratioP1;P2;durP2;ratioP2
5953;SDS011;3002;42.642;24.812;2022-12-28T00:01:18;9.53;;;2.03;;
5953;SDS011;3002;42.642;24.812;2022-12-28T00:03:48;8.30;;;2.40;;
5953;SDS011;3002;42.642;24.812;2022-12-28T00:06:14;8.47;;;1.80;;
5953;SDS011;3002;42.642;24.812;2022-12-28T00:08:42;8.20;;;2.50;;
5953;SDS011;3002;42.642;24.812;2022-12-28T00:11:10;6.90;;;1.50;;
5953;SDS011;3002;42.642;24.812;2022-12-28T00:13:37;5.97;;;1.20;;
5953;SDS011;3002;42.642;24.812;2022-12-28T00:16:12;9.27;;;2.03;;
5953;SDS011;3002;42.642;24.812;2022-12-28T00:18:52;8.73;;;1.97;;
5953;SDS011;3002;42.642;24.812;2022-12-28T00:21:21;7.17;;;1.70;;
5953;SDS011;3002;42.642;24.812;2022-12-28T00:23:47;8.30;;;1.73;;
5953;SDS011;3002;42.642;24.812;2022-12-28T00:26:14;14.20;;;3.70;;
5953;SDS011;3002;42.642;24.812;2022-12-28T00:28:40;18.50;;;4.37;;
5953;SDS011;3002;42.642;24.812;2022-12-28T00:31:06;18.57;;;3.13;;
5953;SDS011;3002;42.642;24.812;2022-12-28T00:33:32;5.57;;;1.40;;
5953;SDS011;3002;42.642;24.812;2022-12-28T00:35:58;14.40;;;3.07;;
5953;SDS011;3002;42.642;24.812;2022-12-28T00:38:25;7.17;;;1.43;;
5953;SDS011;3002;42.642;24.812;2022-12-28T00:40:51;9.73;;;2.00;;
5953;SDS011;3002;42.642;24.812;2022-12-28T00:43:17;5.70;;;1.23;;
5953;SDS011;3002;42.642;24.812;2022-12-28T00:45:43;7.40;;;1.90;;
5953;SDS011;3002;42.642;24.812;2022-12-28T00:48:10;21.13;;;3.83;;
5953;SDS011;3002;42.642;24.812;2022-12-28T00:50:36;5.03;;;1.20;;
5953;SDS011;3002;42.642;24.812;2022-12-28T00:53:02;7.67;;;2.10;;
5953;SDS011;3002;42.642;24.812;2022-12-28T00:55:27;6.30;;;1.43;;
5953;SDS011;3002;42.642;24.812;2022-12-28T00:57:53;9.27;;;2.20;;
5953;SDS011;3002;42.642;24.812;2022-12-28T01:00:18;8.60;;;1.90;;
5953;SDS011;3002;42.642;24.812;2022-12-28T01:02:44;8.23;;;2.00;;
5953;SDS011;3002;42.642;24.812;2022-12-28T01:05:09;10.13;;;2.33;;
5953;SDS011;3002;42.642;24.812;2022-12-28T01:07:35;9.80;;;2.70;;
5953;SDS011;3002;42.642;24.812;2022-12-28T01:10:00;9.30;;;2.33;;
5953;SDS011;3002;42.642;24.812;2022-12-28T01:12:27;8.20;;;1.90;;
5953;SDS011;3002;42.642;24.812;2022-12-28T01:14:53;8.10;;;2.10;;
5953;SDS011;3002;42.642;24.812;2022-12-28T01:17:19;9.63;;;2.17;;
5953;SDS011;3002;42.642;24.812;2022-12-28T01:19:44;20.03;;;2.53;;
5953;SDS011;3002;42.642;24.812;2022-12-28T01:22:10;9.63;;;1.87;;
5953;SDS011;3002;42.642;24.812;2022-12-28T01:24:35;14.10;;;3.30;;
5953;SDS011;3002;42.642;24.812;2022-12-28T01:27:01;8.83;;;2.23;;
5953;SDS011;3002;42.642;24.812;2022-12-28T01:29:27;10.47;;;3.23;;
5953;SDS011;3002;42.642;24.812;2022-12-28T01:31:53;5.97;;;1.80;;
5953;SDS011;3002;42.642;24.812;2022-12-28T01:34:19;4.90;;;1.47;;
5953;SDS011;3002;42.642;24.812;2022-12-28T01:36:45;5.70;;;1.80;;
5953;SDS011;3002;42.642;24.812;2022-12-28T01:39:11;13.80;;;3.37;;
5953;SDS011;3002;42.642;24.812;2022-12-28T01:41:37;9.23;;;2.40;;
5953;SDS011;3002;42.642;24.812;2022-12-28T01:49:30;6.83;;;1.43;;
5953;SDS011;3002;42.642;24.812;2022-12-28T01:52:11;9.00;;;2.20;;
5953;SDS011;3002;42.642;24.812;2022-12-28T01:54:50;10.57;;;2.33;;
5953;SDS011;3002;42.642;24.812;2022-12-28T01:57:20;5.13;;;1.20;;
5953;SDS011;3002;42.642;24.812;2022-12-28T01:59:52;11.80;;;2.40;;
5953;SDS011;3002;42.642;24.812;2022-12-28T02:02:22;16.87;;;3.90;;
5953;SDS011;3002;42.642;24.812;2022-12-28T02:04:48;15.50;;;3.83;;
5953;SDS011;3002;42.642;24.812;2022-12-28T02:10:14;8.40;;;1.50;;
5953;SDS011;3002;42.642;24.812;2022-12-28T02:12:42;7.60;;;1.50;;
5953;SDS011;3002;42.642;24.812;2022-12-28T02:15:09;7.07;;;1.70;;
5953;SDS011;3002;42.642;24.812;2022-12-28T02:17:35;5.17;;;1.23;;
5953;SDS011;3002;42.642;24.812;2022-12-28T02:20:00;7.07;;;1.67;;
5953;SDS011;3002;42.642;24.812;2022-12-28T02:30:22;7.07;;;1.60;;
5953;SDS011;3002;42.642;24.812;2022-12-28T02:33:08;7.70;;;1.83;;
5953;SDS011;3002;42.642;24.812;2022-12-28T02:35:56;9.13;;;2.43;;
5953;SDS011;3002;42.642;24.812;2022-12-28T02:38:27;10.10;;;2.00;;
5953;SDS011;3002;42.642;24.812;2022-12-28T02:41:05;7.10;;;1.63;;
5953;SDS011;3002;42.642;24.812;2022-12-28T02:43:33;6.93;;;1.77;;
5953;SDS011;3002;42.642;24.812;2022-12-28T02:49:25;5.40;;;1.50;;
5953;SDS011;3002;42.642;24.812;2022-12-28T03:04:45;8.37;;;1.70;;
5953;SDS011;3002;42.642;24.812;2022-12-28T03:10:42;6.47;;;1.60;;
5953;SDS011;3002;42.642;24.812;2022-12-28T03:13:51;11.30;;;2.17;;
5953;SDS011;3002;42.642;24.812;2022-12-28T03:16:21;8.53;;;2.60;;
5953;SDS011;3002;42.642;24.812;2022-12-28T03:18:55;17.83;;;4.80;;
5953;SDS011;3002;42.642;24.812;2022-12-28T03:21:43;24.47;;;4.23;;
5953;SDS011;3002;42.642;24.812;2022-12-28T03:24:28;13.50;;;2.90;;
5953;SDS011;3002;42.642;24.812;2022-12-28T03:27:16;8.07;;;1.77;;
5953;SDS011;3002;42.642;24.812;2022-12-28T03:30:07;11.73;;;2.53;;
5953;SDS011;3002;42.642;24.812;2022-12-28T03:32:54;10.40;;;2.00;;
5953;SDS011;3002;42.642;24.812;2022-12-28T03:35:20;9.23;;;1.90;;
5953;SDS011;3002;42.642;24.812;2022-12-28T03:37:51;11.83;;;2.63;;
5953;SDS011;3002;42.642;24.812;2022-12-28T03:40:26;8.30;;;2.00;;
5953;SDS011;3002;42.642;24.812;2022-12-28T03:43:20;10.10;;;2.87;;
5953;SDS011;3002;42.642;24.812;2022-12-28T03:49:00;5.13;;;1.57;;
5953;SDS011;3002;42.642;24.812;2022-12-28T03:51:28;6.67;;;1.63;;
5953;SDS011;3002;42.642;24.812;2022-12-28T03:53:56;7.07;;;1.60;;
5953;SDS011;3002;42.642;24.812;2022-12-28T03:56:22;7.13;;;1.70;;
5953;SDS011;3002;42.642;24.812;2022-12-28T03:58:50;7.37;;;1.80;;
5953;SDS011;3002;42.642;24.812;2022-12-28T04:01:17;7.50;;;1.87;;
5953;SDS011;3002;42.642;24.812;2022-12-28T04:03:42;10.33;;;2.97;;
5953;SDS011;3002;42.642;24.812;2022-12-28T04:06:10;6.60;;;1.83;;
5953;SDS011;3002;42.642;24.812;2022-12-28T04:08:37;13.30;;;3.00;;
5953;SDS011;3002;42.642;24.812;2022-12-28T04:11:03;5.27;;;1.83;;
5953;SDS011;3002;42.642;24.812;2022-12-28T04:13:32;6.77;;;2.53;;
5953;SDS011;3002;42.642;24.812;2022-12-28T04:15:58;8.67;;;3.20;;
5953;SDS011;3002;42.642;24.812;2022-12-28T04:18:26;7.27;;;2.20;;
5953;SDS011;3002;42.642;24.812;2022-12-28T04:20:52;10.00;;;2.20;;
5953;SDS011;3002;42.642;24.812;2022-12-28T04:23:18;7.90;;;2.07;;
5953;SDS011;3002;42.642;24.812;2022-12-28T04:25:54;8.07;;;2.60;;
5953;SDS011;3002;42.642;24.812;2022-12-28T04:28:20;9.87;;;2.73;;
5953;SDS011;3002;42.642;24.812;2022-12-28T04:30:46;8.10;;;1.90;;
5953;SDS011;3002;42.642;24.812;2022-12-28T04:33:12;6.10;;;2.03;;
5953;SDS011;3002;42.642;24.812;2022-12-28T04:35:38;6.70;;;1.80;;
5953;SDS011;3002;42.642;24.812;2022-12-28T04:38:03;11.03;;;2.93;;
5953;SDS011;3002;42.642;24.812;2022-12-28T04:40:29;8.93;;;2.30;;
5953;SDS011;3002;42.642;24.812;2022-12-28T04:42:56;7.00;;;2.47;;
5953;SDS011;3002;42.642;24.812;2022-12-28T04:45:21;7.20;;;2.27;;
5953;SDS011;3002;42.642;24.812;2022-12-28T04:47:48;5.83;;;1.40;;
5953;SDS011;3002;42.642;24.812;2022-12-28T04:50:15;7.53;;;1.80;;
5953;SDS011;3002;42.642;24.812;2022-12-28T04:52:41;6.47;;;1.67;;
5953;SDS011;3002;42.642;24.812;2022-12-28T04:55:06;5.17;;;1.30;;
5953;SDS011;3002;42.642;24.812;2022-12-28T04:57:32;7.33;;;1.53;;
5953;SDS011;3002;42.642;24.812;2022-12-28T04:59:58;7.73;;;1.80;;
5953;SDS011;3002;42.642;24.812;2022-12-28T05:02:23;10.17;;;3.27;;
5953;SDS011;3002;42.642;24.812;2022-12-28T05:04:48;10.23;;;1.87;;
5953;SDS011;3002;42.642;24.812;2022-12-28T05:07:14;13.77;;;2.80;;
5953;SDS011;3002;42.642;24.812;2022-12-28T05:09:39;6.87;;;1.87;;
5953;SDS011;3002;42.642;24.812;2022-12-28T05:12:05;5.50;;;1.50;;
5953;SDS011;3002;42.642;24.812;2022-12-28T05:14:30;7.23;;;2.40;;
5953;SDS011;3002;42.642;24.812;2022-12-28T05:16:56;8.60;;;2.53;;
5953;SDS011;3002;42.642;24.812;2022-12-28T05:19:21;7.00;;;1.87;;
5953;SDS011;3002;42.642;24.812;2022-12-28T05:21:47;6.47;;;1.73;;
5953;SDS011;3002;42.642;24.812;2022-12-28T05:24:12;6.80;;;2.03;;
5953;SDS011;3002;42.642;24.812;2022-12-28T05:26:38;9.17;;;2.40;;
5953;SDS011;3002;42.642;24.812;2022-12-28T05:29:03;12.93;;;3.13;;
5953;SDS011;3002;42.642;24.812;2022-12-28T05:31:28;6.47;;;1.67;;
5953;SDS011;3002;42.642;24.812;2022-12-28T05:33:54;10.60;;;2.77;;
5953;SDS011;3002;42.642;24.812;2022-12-28T05:36:21;6.60;;;1.60;;
5953;SDS011;3002;42.642;24.812;2022-12-28T05:38:48;9.00;;;3.03;;
5953;SDS011;3002;42.642;24.812;2022-12-28T05:41:18;20.30;;;7.17;;
5953;SDS011;3002;42.642;24.812;2022-12-28T05:43:43;13.03;;;4.83;;
5953;SDS011;3002;42.642;24.812;2022-12-28T05:46:14;10.63;;;3.27;;
5953;SDS011;3002;42.642;24.812;2022-12-28T05:48:43;7.40;;;2.30;;
5953;SDS011;3002;42.642;24.812;2022-12-28T05:51:10;7.73;;;1.87;;
5953;SDS011;3002;42.642;24.812;2022-12-28T05:53:38;5.40;;;1.20;;
5953;SDS011;3002;42.642;24.812;2022-12-28T05:56:08;6.10;;;1.47;;
5953;SDS011;3002;42.642;24.812;2022-12-28T05:58:37;5.57;;;1.77;;
5953;SDS011;3002;42.642;24.812;2022-12-28T06:01:08;12.60;;;4.33;;
5953;SDS011;3002;42.642;24.812;2022-12-28T06:03:36;9.80;;;4.17;;
5953;SDS011;3002;42.642;24.812;2022-12-28T06:06:06;8.47;;;3.67;;
5953;SDS011;3002;42.642;24.812;2022-12-28T06:08:40;12.37;;;3.57;;
5953;SDS011;3002;42.642;24.812;2022-12-28T06:11:07;9.70;;;2.70;;
5953;SDS011;3002;42.642;24.812;2022-12-28T06:13:36;8.67;;;2.47;;
5953;SDS011;3002;42.642;24.812;2022-12-28T06:16:08;12.90;;;4.10;;
5953;SDS011;3002;42.642;24.812;2022-12-28T06:18:38;10.27;;;3.23;;
5953;SDS011;3002;42.642;24.812;2022-12-28T06:21:05;9.17;;;2.60;;
5953;SDS011;3002;42.642;24.812;2022-12-28T06:23:35;6.57;;;1.67;;
5953;SDS011;3002;42.642;24.812;2022-12-28T06:26:02;13.50;;;3.53;;
5953;SDS011;3002;42.642;24.812;2022-12-28T06:28:29;11.97;;;2.67;;
5953;SDS011;3002;42.642;24.812;2022-12-28T06:31:09;11.80;;;3.40;;
5953;SDS011;3002;42.642;24.812;2022-12-28T06:33:40;15.43;;;4.03;;
5953;SDS011;3002;42.642;24.812;2022-12-28T06:36:13;7.13;;;2.40;;
5953;SDS011;3002;42.642;24.812;2022-12-28T06:38:42;7.90;;;2.60;;
5953;SDS011;3002;42.642;24.812;2022-12-28T06:41:09;7.17;;;2.00;;
5953;SDS011;3002;42.642;24.812;2022-12-28T06:43:37;9.97;;;3.37;;
5953;SDS011;3002;42.642;24.812;2022-12-28T06:46:04;5.83;;;2.20;;
5953;SDS011;3002;42.642;24.812;2022-12-28T06:48:31;6.60;;;2.30;;
5953;SDS011;3002;42.642;24.812;2022-12-28T06:50:58;11.73;;;2.97;;
5953;SDS011;3002;42.642;24.812;2022-12-28T06:53:33;15.77;;;3.00;;
5953;SDS011;3002;42.642;24.812;2022-12-28T06:56:03;18.47;;;5.00;;
5953;SDS011;3002;42.642;24.812;2022-12-28T06:58:31;23.57;;;8.13;;
5953;SDS011;3002;42.642;24.812;2022-12-28T07:00:57;30.10;;;10.40;;
5953;SDS011;3002;42.642;24.812;2022-12-28T07:03:33;28.87;;;8.90;;
5953;SDS011;3002;42.642;24.812;2022-12-28T07:05:59;33.30;;;8.03;;
5953;SDS011;3002;42.642;24.812;2022-12-28T07:08:26;16.20;;;6.10;;
5953;SDS011;3002;42.642;24.812;2022-12-28T07:10:52;30.00;;;6.87;;
5953;SDS011;3002;42.642;24.812;2022-12-28T07:13:25;39.20;;;11.43;;
5953;SDS011;3002;42.642;24.812;2022-12-28T07:15:54;41.83;;;11.40;;
5953;SDS011;3002;42.642;24.812;2022-12-28T07:18:19;34.53;;;11.13;;
5953;SDS011;3002;42.642;24.812;2022-12-28T07:20:45;40.57;;;11.40;;
5953;SDS011;3002;42.642;24.812;2022-12-28T07:23:10;29.10;;;10.53;;
5953;SDS011;3002;42.642;24.812;2022-12-28T07:25:36;21.00;;;8.73;;
5953;SDS011;3002;42.642;24.812;2022-12-28T07:28:01;28.73;;;9.70;;
5953;SDS011;3002;42.642;24.812;2022-12-28T07:30:27;23.33;;;7.53;;
5953;SDS011;3002;42.642;24.812;2022-12-28T07:32:54;25.57;;;9.60;;
5953;SDS011;3002;42.642;24.812;2022-12-28T07:35:20;22.93;;;9.50;;
5953;SDS011;3002;42.642;24.812;2022-12-28T07:37:45;25.30;;;9.20;;
5953;SDS011;3002;42.642;24.812;2022-12-28T07:40:11;20.00;;;9.13;;
5953;SDS011;3002;42.642;24.812;2022-12-28T07:42:37;20.43;;;9.13;;
5953;SDS011;3002;42.642;24.812;2022-12-28T07:45:03;25.70;;;9.43;;
5953;SDS011;3002;42.642;24.812;2022-12-28T07:47:30;27.70;;;10.03;;
5953;SDS011;3002;42.642;24.812;2022-12-28T07:49:57;39.80;;;12.87;;
5953;SDS011;3002;42.642;24.812;2022-12-28T07:52:22;25.70;;;10.40;;
5953;SDS011;3002;42.642;24.812;2022-12-28T07:54:48;22.40;;;8.67;;
5953;SDS011;3002;42.642;24.812;2022-12-28T07:57:13;30.03;;;12.17;;
5953;SDS011;3002;42.642;24.812;2022-12-28T07:59:39;23.43;;;11.10;;
5953;SDS011;3002;42.642;24.812;2022-12-28T08:02:09;26.10;;;11.97;;
5953;SDS011;3002;42.642;24.812;2022-12-28T08:04:35;37.60;;;12.80;;
5953;SDS011;3002;42.642;24.812;2022-12-28T08:07:00;45.77;;;14.17;;
5953;SDS011;3002;42.642;24.812;2022-12-28T08:09:26;32.70;;;11.07;;
5953;SDS011;3002;42.642;24.812;2022-12-28T08:11:51;23.43;;;8.80;;
5953;SDS011;3002;42.642;24.812;2022-12-28T08:14:17;26.60;;;8.70;;
5953;SDS011;3002;42.642;24.812;2022-12-28T08:16:42;14.10;;;5.70;;
5953;SDS011;3002;42.642;24.812;2022-12-28T08:19:08;11.73;;;5.10;;
5953;SDS011;3002;42.642;24.812;2022-12-28T08:21:36;6.80;;;2.60;;
5953;SDS011;3002;42.642;24.812;2022-12-28T08:24:04;8.97;;;2.77;;
5953;SDS011;3002;42.642;24.812;2022-12-28T08:26:31;14.40;;;4.63;;
5953;SDS011;3002;42.642;24.812;2022-12-28T08:28:58;9.23;;;3.57;;
5953;SDS011;3002;42.642;24.812;2022-12-28T08:31:27;9.77;;;3.10;;
5953;SDS011;3002;42.642;24.812;2022-12-28T08:33:55;17.50;;;4.20;;
5953;SDS011;3002;42.642;24.812;2022-12-28T08:36:22;11.97;;;3.50;;
5953;SDS011;3002;42.642;24.812;2022-12-28T08:38:48;24.90;;;4.17;;
5953;SDS011;3002;42.642;24.812;2022-12-28T08:41:15;19.33;;;5.90;;
5953;SDS011;3002;42.642;24.812;2022-12-28T08:43:45;11.57;;;3.67;;
5953;SDS011;3002;42.642;24.812;2022-12-28T08:46:15;8.30;;;3.63;;
5953;SDS011;3002;42.642;24.812;2022-12-28T08:48:52;11.40;;;3.30;;
5953;SDS011;3002;42.642;24.812;2022-12-28T08:51:25;15.23;;;3.40;;
5953;SDS011;3002;42.642;24.812;2022-12-28T08:53:52;7.67;;;2.60;;
5953;SDS011;3002;42.642;24.812;2022-12-28T08:56:19;12.60;;;3.67;;
5953;SDS011;3002;42.642;24.812;2022-12-28T08:58:49;8.90;;;3.37;;
5953;SDS011;3002;42.642;24.812;2022-12-28T09:01:19;10.90;;;3.30;;
5953;SDS011;3002;42.642;24.812;2022-12-28T09:03:47;11.30;;;3.50;;
5953;SDS011;3002;42.642;24.812;2022-12-28T09:06:16;23.17;;;6.47;;
5953;SDS011;3002;42.642;24.812;2022-12-28T09:08:43;12.00;;;4.87;;
5953;SDS011;3002;42.642;24.812;2022-12-28T09:11:12;21.77;;;7.43;;
5953;SDS011;3002;42.642;24.812;2022-12-28T09:13:38;12.30;;;4.30;;
5953;SDS011;3002;42.642;24.812;2022-12-28T09:16:20;25.17;;;6.83;;
5953;SDS011;3002;42.642;24.812;2022-12-28T09:18:51;11.23;;;3.47;;
5953;SDS011;3002;42.642;24.812;2022-12-28T09:21:19;12.67;;;4.17;;
5953;SDS011;3002;42.642;24.812;2022-12-28T09:23:45;14.30;;;3.67;;
5953;SDS011;3002;42.642;24.812;2022-12-28T09:26:12;6.93;;;2.77;;
5953;SDS011;3002;42.642;24.812;2022-12-28T09:28:43;23.50;;;4.90;;
5953;SDS011;3002;42.642;24.812;2022-12-28T09:31:13;16.03;;;4.43;;
5953;SDS011;3002;42.642;24.812;2022-12-28T09:33:39;39.87;;;7.60;;
5953;SDS011;3002;42.642;24.812;2022-12-28T09:36:25;10.07;;;4.53;;
5953;SDS011;3002;42.642;24.812;2022-12-28T09:38:56;11.60;;;3.40;;
5953;SDS011;3002;42.642;24.812;2022-12-28T09:41:34;10.00;;;3.60;;
5953;SDS011;3002;42.642;24.812;2022-12-28T09:46:41;14.50;;;5.60;;
5953;SDS011;3002;42.642;24.812;2022-12-28T09:49:14;37.40;;;8.07;;
5953;SDS011;3002;42.642;24.812;2022-12-28T09:51:46;21.53;;;6.60;;
5953;SDS011;3002;42.642;24.812;2022-12-28T09:54:16;7.27;;;2.90;;
5953;SDS011;3002;42.642;24.812;2022-12-28T09:56:42;9.53;;;2.20;;
5953;SDS011;3002;42.642;24.812;2022-12-28T09:59:11;7.80;;;2.33;;
5953;SDS011;3002;42.642;24.812;2022-12-28T10:01:41;18.17;;;3.20;;
5953;SDS011;3002;42.642;24.812;2022-12-28T10:04:09;6.27;;;2.13;;
5953;SDS011;3002;42.642;24.812;2022-12-28T10:06:35;11.27;;;2.77;;
5953;SDS011;3002;42.642;24.812;2022-12-28T10:09:04;10.60;;;3.40;;
5953;SDS011;3002;42.642;24.812;2022-12-28T10:11:41;6.50;;;2.17;;
5953;SDS011;3002;42.642;24.812;2022-12-28T10:14:18;12.60;;;3.30;;
5953;SDS011;3002;42.642;24.812;2022-12-28T10:16:47;12.73;;;4.43;;
5953;SDS011;3002;42.642;24.812;2022-12-28T10:19:16;12.07;;;2.80;;
5953;SDS011;3002;42.642;24.812;2022-12-28T10:21:44;5.57;;;1.70;;
5953;SDS011;3002;42.642;24.812;2022-12-28T10:24:14;30.33;;;8.60;;
5953;SDS011;3002;42.642;24.812;2022-12-28T10:26:40;14.87;;;3.73;;
5953;SDS011;3002;42.642;24.812;2022-12-28T10:29:11;9.73;;;2.60;;
5953;SDS011;3002;42.642;24.812;2022-12-28T10:31:40;12.73;;;2.87;;
5953;SDS011;3002;42.642;24.812;2022-12-28T10:34:14;25.20;;;5.97;;
5953;SDS011;3002;42.642;24.812;2022-12-28T10:36:42;25.70;;;6.50;;
5953;SDS011;3002;42.642;24.812;2022-12-28T10:39:29;21.43;;;6.00;;
5953;SDS011;3002;42.642;24.812;2022-12-28T10:41:55;18.43;;;4.50;;
5953;SDS011;3002;42.642;24.812;2022-12-28T10:49:21;10.53;;;3.20;;
5953;SDS011;3002;42.642;24.812;2022-12-28T10:52:04;7.20;;;2.10;;
5953;SDS011;3002;42.642;24.812;2022-12-28T10:54:34;20.67;;;4.80;;
5953;SDS011;3002;42.642;24.812;2022-12-28T10:57:00;29.77;;;11.70;;
5953;SDS011;3002;42.642;24.812;2022-12-28T10:59:27;15.70;;;6.73;;
5953;SDS011;3002;42.642;24.812;2022-12-28T11:01:54;42.07;;;17.70;;
5953;SDS011;3002;42.642;24.812;2022-12-28T11:04:59;6.53;;;1.97;;
5953;SDS011;3002;42.642;24.812;2022-12-28T11:12:46;12.97;;;4.57;;
5953;SDS011;3002;42.642;24.812;2022-12-28T11:15:13;20.40;;;6.97;;
5953;SDS011;3002;42.642;24.812;2022-12-28T11:17:41;9.00;;;2.80;;
5953;SDS011;3002;42.642;24.812;2022-12-28T11:20:08;9.30;;;2.30;;
5953;SDS011;3002;42.642;24.812;2022-12-28T11:22:38;16.03;;;3.67;;
5953;SDS011;3002;42.642;24.812;2022-12-28T11:25:03;10.27;;;3.20;;
5953;SDS011;3002;42.642;24.812;2022-12-28T11:27:32;7.30;;;2.10;;
5953;SDS011;3002;42.642;24.812;2022-12-28T11:29:58;5.33;;;1.57;;
5953;SDS011;3002;42.642;24.812;2022-12-28T11:32:25;8.37;;;2.50;;
5953;SDS011;3002;42.642;24.812;2022-12-28T11:34:55;6.57;;;2.10;;
5953;SDS011;3002;42.642;24.812;2022-12-28T11:37:22;10.93;;;2.40;;
5953;SDS011;3002;42.642;24.812;2022-12-28T11:39:48;5.73;;;1.67;;
5953;SDS011;3002;42.642;24.812;2022-12-28T11:44:57;6.53;;;2.20;;
5953;SDS011;3002;42.642;24.812;2022-12-28T11:47:27;14.23;;;3.30;;
5953;SDS011;3002;42.642;24.812;2022-12-28T11:52:58;14.63;;;7.27;;
5953;SDS011;3002;42.642;24.812;2022-12-28T12:00:55;10.93;;;3.20;;
5953;SDS011;3002;42.642;24.812;2022-12-28T12:11:50;9.03;;;2.47;;
5953;SDS011;3002;42.642;24.812;2022-12-28T12:14:19;6.20;;;2.17;;
5953;SDS011;3002;42.642;24.812;2022-12-28T12:16:54;9.63;;;2.53;;
5953;SDS011;3002;42.642;24.812;2022-12-28T12:19:34;5.83;;;2.20;;
5953;SDS011;3002;42.642;24.812;2022-12-28T12:24:49;10.47;;;3.37;;
5953;SDS011;3002;42.642;24.812;2022-12-28T12:27:30;15.93;;;3.97;;
5953;SDS011;3002;42.642;24.812;2022-12-28T12:30:11;6.40;;;2.13;;
5953;SDS011;3002;42.642;24.812;2022-12-28T12:32:47;17.93;;;5.33;;
5953;SDS011;3002;42.642;24.812;2022-12-28T12:35:18;20.20;;;6.23;;
5953;SDS011;3002;42.642;24.812;2022-12-28T12:51:40;7.47;;;2.53;;
5953;SDS011;3002;42.642;24.812;2022-12-28T12:54:37;13.57;;;4.33;;
5953;SDS011;3002;42.642;24.812;2022-12-28T12:57:43;10.20;;;3.67;;
5953;SDS011;3002;42.642;24.812;2022-12-28T13:00:31;28.13;;;11.60;;
5953;SDS011;3002;42.642;24.812;2022-12-28T13:05:57;19.27;;;7.00;;
5953;SDS011;3002;42.642;24.812;2022-12-28T13:08:36;27.80;;;7.80;;
5953;SDS011;3002;42.642;24.812;2022-12-28T13:11:09;36.70;;;12.03;;
5953;SDS011;3002;42.642;24.812;2022-12-28T13:13:36;67.47;;;20.60;;
5953;SDS011;3002;42.642;24.812;2022-12-28T13:16:08;36.43;;;10.43;;
5953;SDS011;3002;42.642;24.812;2022-12-28T13:18:36;53.47;;;15.83;;
5953;SDS011;3002;42.642;24.812;2022-12-28T13:21:03;68.70;;;17.53;;
5953;SDS011;3002;42.642;24.812;2022-12-28T13:23:31;39.77;;;11.30;;
5953;SDS011;3002;42.642;24.812;2022-12-28T13:26:00;30.97;;;10.50;;
5953;SDS011;3002;42.642;24.812;2022-12-28T13:28:30;25.77;;;8.00;;
5953;SDS011;3002;42.642;24.812;2022-12-28T13:31:09;39.73;;;12.37;;
5953;SDS011;3002;42.642;24.812;2022-12-28T13:33:40;21.80;;;5.37;;
5953;SDS011;3002;42.642;24.812;2022-12-28T13:36:13;31.67;;;8.73;;
5953;SDS011;3002;42.642;24.812;2022-12-28T13:39:11;23.53;;;6.70;;
5953;SDS011;3002;42.642;24.812;2022-12-28T13:41:54;9.00;;;3.27;;
5953;SDS011;3002;42.642;24.812;2022-12-28T13:47:20;19.30;;;7.10;;
5953;SDS011;3002;42.642;24.812;2022-12-28T13:50:13;13.83;;;4.63;;
5953;SDS011;3002;42.642;24.812;2022-12-28T13:53:11;34.40;;;11.07;;
5953;SDS011;3002;42.642;24.812;2022-12-28T13:58:14;7.50;;;2.73;;
5953;SDS011;3002;42.642;24.812;2022-12-28T14:00:47;11.80;;;2.00;;
5953;SDS011;3002;42.642;24.812;2022-12-28T14:03:17;13.23;;;4.63;;
5953;SDS011;3002;42.642;24.812;2022-12-28T14:05:45;5.90;;;3.13;;
5953;SDS011;3002;42.642;24.812;2022-12-28T14:08:13;5.07;;;2.03;;
5953;SDS011;3002;42.642;24.812;2022-12-28T14:10:40;11.90;;;4.73;;
5953;SDS011;3002;42.642;24.812;2022-12-28T14:13:09;7.63;;;3.50;;
5953;SDS011;3002;42.642;24.812;2022-12-28T14:15:35;11.70;;;4.13;;
5953;SDS011;3002;42.642;24.812;2022-12-28T14:18:16;10.40;;;4.47;;
5953;SDS011;3002;42.642;24.812;2022-12-28T14:20:46;11.50;;;4.23;;
5953;SDS011;3002;42.642;24.812;2022-12-28T14:23:23;7.70;;;3.67;;
5953;SDS011;3002;42.642;24.812;2022-12-28T14:25:54;10.70;;;4.53;;
5953;SDS011;3002;42.642;24.812;2022-12-28T14:28:42;8.57;;;3.70;;
5953;SDS011;3002;42.642;24.812;2022-12-28T14:31:11;15.03;;;5.20;;
5953;SDS011;3002;42.642;24.812;2022-12-28T14:33:57;11.93;;;5.40;;
5953;SDS011;3002;42.642;24.812;2022-12-28T14:36:41;21.93;;;5.73;;
5953;SDS011;3002;42.642;24.812;2022-12-28T14:39:31;19.20;;;6.87;;
5953;SDS011;3002;42.642;24.812;2022-12-28T14:42:05;28.87;;;10.90;;
5953;SDS011;3002;42.642;24.812;2022-12-28T14:44:50;17.13;;;6.53;;
5953;SDS011;3002;42.642;24.812;2022-12-28T14:47:59;18.83;;;7.10;;
5953;SDS011;3002;42.642;24.812;2022-12-28T14:50:24;23.37;;;10.93;;
5953;SDS011;3002;42.642;24.812;2022-12-28T14:53:01;31.33;;;10.10;;
5953;SDS011;3002;42.642;24.812;2022-12-28T14:58:19;14.47;;;6.67;;
5953;SDS011;3002;42.642;24.812;2022-12-28T15:00:53;19.13;;;7.10;;
5953;SDS011;3002;42.642;24.812;2022-12-28T15:03:21;13.63;;;4.57;;
5953;SDS011;3002;42.642;24.812;2022-12-28T15:05:51;15.00;;;5.10;;
5953;SDS011;3002;42.642;24.812;2022-12-28T15:08:18;10.47;;;3.93;;
5953;SDS011;3002;42.642;24.812;2022-12-28T15:10:54;15.50;;;5.23;;
5953;SDS011;3002;42.642;24.812;2022-12-28T15:13:21;12.23;;;3.97;;
5953;SDS011;3002;42.642;24.812;2022-12-28T15:15:55;13.97;;;3.50;;
5953;SDS011;3002;42.642;24.812;2022-12-28T15:18:32;8.03;;;3.17;;
5953;SDS011;3002;42.642;24.812;2022-12-28T15:21:14;9.37;;;3.70;;
5953;SDS011;3002;42.642;24.812;2022-12-28T15:23:50;17.80;;;6.33;;
5953;SDS011;3002;42.642;24.812;2022-12-28T15:26:22;13.93;;;3.97;;
5953;SDS011;3002;42.642;24.812;2022-12-28T15:31:30;9.47;;;4.70;;
5953;SDS011;3002;42.642;24.812;2022-12-28T15:33:57;11.00;;;4.53;;
5953;SDS011;3002;42.642;24.812;2022-12-28T15:36:23;17.80;;;4.30;;
5953;SDS011;3002;42.642;24.812;2022-12-28T15:38:50;11.43;;;3.63;;
5953;SDS011;3002;42.642;24.812;2022-12-28T15:41:17;15.27;;;5.03;;
5953;SDS011;3002;42.642;24.812;2022-12-28T15:44:01;15.00;;;4.30;;
5953;SDS011;3002;42.642;24.812;2022-12-28T15:46:29;11.97;;;3.97;;
5953;SDS011;3002;42.642;24.812;2022-12-28T15:49:06;15.53;;;6.37;;
5953;SDS011;3002;42.642;24.812;2022-12-28T15:51:32;13.77;;;5.93;;
5953;SDS011;3002;42.642;24.812;2022-12-28T15:53:58;26.17;;;8.00;;
5953;SDS011;3002;42.642;24.812;2022-12-28T15:56:28;20.80;;;7.27;;
5953;SDS011;3002;42.642;24.812;2022-12-28T15:58:58;23.87;;;9.60;;
5953;SDS011;3002;42.642;24.812;2022-12-28T16:01:26;20.10;;;8.63;;
5953;SDS011;3002;42.642;24.812;2022-12-28T16:03:54;15.50;;;7.50;;
5953;SDS011;3002;42.642;24.812;2022-12-28T16:06:22;24.37;;;9.97;;
5953;SDS011;3002;42.642;24.812;2022-12-28T16:08:57;27.30;;;9.27;;
5953;SDS011;3002;42.642;24.812;2022-12-28T16:11:26;32.47;;;11.10;;
5953;SDS011;3002;42.642;24.812;2022-12-28T16:14:17;27.47;;;10.17;;
5953;SDS011;3002;42.642;24.812;2022-12-28T16:16:48;49.90;;;12.30;;
5953;SDS011;3002;42.642;24.812;2022-12-28T16:19:34;30.57;;;12.37;;
5953;SDS011;3002;42.642;24.812;2022-12-28T16:22:02;32.10;;;12.60;;
5953;SDS011;3002;42.642;24.812;2022-12-28T16:24:28;29.30;;;11.37;;
5953;SDS011;3002;42.642;24.812;2022-12-28T16:26:59;24.80;;;9.90;;
5953;SDS011;3002;42.642;24.812;2022-12-28T16:29:25;26.17;;;8.43;;
5953;SDS011;3002;42.642;24.812;2022-12-28T16:31:56;86.87;;;22.73;;
5953;SDS011;3002;42.642;24.812;2022-12-28T16:34:27;29.17;;;10.03;;
5953;SDS011;3002;42.642;24.812;2022-12-28T16:36:56;8.73;;;3.40;;
5953;SDS011;3002;42.642;24.812;2022-12-28T16:39:25;14.50;;;3.40;;
5953;SDS011;3002;42.642;24.812;2022-12-28T16:41:56;12.27;;;3.67;;
5953;SDS011;3002;42.642;24.812;2022-12-28T16:44:23;10.03;;;3.43;;
5953;SDS011;3002;42.642;24.812;2022-12-28T16:47:11;10.23;;;3.97;;
5953;SDS011;3002;42.642;24.812;2022-12-28T16:49:55;16.17;;;5.40;;
5953;SDS011;3002;42.642;24.812;2022-12-28T16:52:21;19.00;;;5.10;;
5953;SDS011;3002;42.642;24.812;2022-12-28T16:54:47;9.60;;;4.00;;